• Join FlightAware (Why Join?)
  • Login
  • US Flag 
12:11PM EDT


 

Airport Tracker/Info


-or-


 

Live Flight TrackerFlight Track Log ✈ UAL139 ✈ 16-Oct-2013 ✈ KDEN - RJAA / NRT

Flight Track Log - Related Links

Times and Time Zones

All times are in EDT time to prevent confusion due to time zone crossing. See the UAL139 flight status page for this flight to view local times or setup timezone preferences in your user account.

Time Position Orientation Groundspeed Altitude Reporting Facility
EDT Latitude Longitude Course Direction KTS MPH feet Rate Location/Type
02:44PM 39.8650 -104.6960 293° West 143 165 5,200  Level FlightAware
02:44PM 39.8820 -104.6960 360° North 201 231 5,300 960 Climbing FlightAware
02:44PM 39.9030 -104.6970 358° North 215 247 5,900 1,860 Climbing FlightAware
02:44PM 39.9130 -104.7000 347° North 218 251 6,300 2,280 Climbing FlightAware
02:45PM 39.9210 -104.7050 334° Northwest 220 253 6,600 2,040 Climbing FlightAware
02:45PM 39.9329 -104.7166 323° Northwest 228 262 7,100 2,100 Climbing FlightAware ADS-B (KEIK)
02:46PM 39.9530 -104.7770 293° West 244 281 8,800 1,980 Climbing FlightAware
02:46PM 39.9550 -104.8040 276° West 255 293 9,300 2,040 Climbing FlightAware
02:46PM 39.9520 -104.8390 264° West 268 308 10,200 1,740 Climbing FlightAware
02:47PM 39.9480 -104.8637 258° West 292 336 10,500 1,080 Climbing FlightAware ADS-B (KEIK)
02:47PM 39.9436 -104.9252 265° West 320 368 11,100 1,560 Climbing FlightAware ADS-B (KEIK)
02:48PM 39.9451 -104.9865 272° West 339 390 12,100 1,500 Climbing FlightAware ADS-B (KEIK)
02:48PM 39.9367 -105.0717 263° West 378 435 12,900 1,800 Climbing FlightAware ADS-B (KEIK)
02:49PM 39.9203 -105.2108 261° West 396 456 15,100 2,220 Climbing FlightAware ADS-B (KEIK)
02:50PM 39.9098 -105.3031 262° West 403 464 16,600 2,160 Climbing FlightAware ADS-B (KEIK)
02:50PM 39.9003 -105.3838 261° West 409 471 17,700 1,800 Climbing FlightAware ADS-B (KEIK)
02:51PM 39.8881 -105.4894 261° West 424 488 18,900 1,800 Climbing FlightAware ADS-B (KEIK)
02:52PM 39.8801 -105.5599 262° West 430 495 19,900 1,560 Climbing FlightAware ADS-B (KEIK)
02:52PM 39.8675 -105.6630 261° West 448 516 20,700 1,560 Climbing FlightAware ADS-B (KEIK)
02:53PM 39.8572 -105.7461 261° West 451 519 21,800 1,740 Climbing FlightAware ADS-B (KEIK)
02:53PM 39.8496 -105.8395 264° West 454 522 22,700 1,620 Climbing FlightAware ADS-B (KEIK)
02:54PM 39.8436 -105.9182 264° West 463 533 23,800 1,440 Climbing FlightAware ADS-B (KEIK)
02:55PM 39.8270 -106.1100 264° West 473 544 25,100 1,320 Climbing FlightAware
02:55PM 39.8241 -106.1432 264° West 475 547 25,400 1,320 Climbing FlightAware ADS-B (KEIK)
02:56PM 39.8090 -106.3110 263° West 484 557 26,700 1,320 Climbing FlightAware
02:56PM 39.8047 -106.3565 263° West 485 558 27,100 1,260 Climbing FlightAware ADS-B (KEIK)
02:57PM 39.7910 -106.5120 264° West 492 566 28,200 1,200 Climbing FlightAware
02:58PM 39.7850 -106.6160 266° West 495 570 28,900 960 Climbing FlightAware
02:59PM 39.7800 -106.7240 267° West 502 578 29,400 900 Climbing FlightAware
02:59PM 39.7794 -106.7386 267° West 504 580 29,600 1,020 Climbing FlightAware ADS-B (KEIK)
02:59PM 39.7742 -106.8508 267° West 510 587 30,300 1,140 Climbing FlightAware ADS-B (KEIK)
03:00PM 39.7650 -107.0390 266° West 507 583 31,500 1,320 Climbing FlightAware
03:01PM 39.7610 -107.1200 266° West 503 579 32,200 1,500 Climbing FlightAware
03:01PM 39.7590 -107.1698 267° West 502 578 32,600 1,380 Climbing FlightAware ADS-B (KMTJ)
03:02PM 39.7543 -107.2670 266° West 501 577 33,200 1,080 Climbing FlightAware ADS-B (KMTJ)
03:02PM 39.7500 -107.3550 266° West 499 574 33,700 1,200 Climbing FlightAware ADS-B (KMTJ)
03:03PM 39.7437 -107.4755 266° West 494 568 34,600 1,320 Climbing FlightAware ADS-B (KMTJ)
03:03PM 39.7375 -107.5939 266° West 484 557 35,500 1,020 Climbing FlightAware ADS-B (KMTJ)
03:04PM 39.7316 -107.7046 266° West 481 554 36,000 360 Climbing FlightAware ADS-B (KMTJ)
03:05PM 39.7262 -107.8043 266° West 482 555 36,000  Level FlightAware ADS-B (KMTJ)
03:05PM 39.7213 -107.8937 266° West 483 556 36,000  Level FlightAware ADS-B (KMTJ)
03:06PM 39.7160 -107.9907 266° West 482 555 36,000  Level FlightAware ADS-B (KMTJ)
03:06PM 39.7101 -108.0957 266° West 479 551 36,000  Level FlightAware ADS-B (KMTJ)
03:07PM 39.7051 -108.1827 266° West 478 550 36,000  Level FlightAware ADS-B (KMTJ)
03:07PM 39.7000 -108.2711 266° West 476 548 36,000  Level FlightAware ADS-B (KMTJ)
03:08PM 39.6950 -108.3553 266° West 475 547 36,000  Level FlightAware ADS-B (KMTJ)
03:08PM 39.6898 -108.4406 266° West 473 544 36,000  Level FlightAware ADS-B (KMTJ)
03:09PM 39.6867 -108.4937 266° West 471 542 36,000  Level FlightAware ADS-B (KMTJ)
03:09PM 39.6902 -108.5935 273° West 460 529 36,000  Level FlightAware ADS-B (KMTJ)
03:10PM 39.6961 -108.6682 276° West 462 532 36,000  Level FlightAware ADS-B (KMTJ)
03:10PM 39.7027 -108.7509 276° West 463 533 36,000  Level FlightAware ADS-B (KMTJ)
03:10PM 39.6892 -108.5809 96° East 463 533 36,000  Level FlightAware ADS-B (KMTJ)
03:11PM 39.7123 -108.8682 276° West 463 533 36,000  Level FlightAware ADS-B (KMTJ)
03:11PM 39.7128 -108.8749 276° West 464 534 36,000  Level FlightAware ADS-B (KMTJ)
03:11PM 39.7131 -108.9335 270° West 464 534 36,000  Level FlightAware ADS-B (KMTJ)
03:12PM 39.7110 -109.0194 268° West 471 542 36,000  Level FlightAware ADS-B (KMTJ)
03:13PM 39.7014 -109.1528 265° West 473 544 36,000  Level FlightAware ADS-B (KMTJ)
03:13PM 39.6949 -109.2288 264° West 472 543 36,000  Level FlightAware ADS-B (KMTJ)
03:14PM 39.6855 -109.3384 264° West 472 543 36,000  Level FlightAware ADS-B (KMTJ)
03:14PM 39.6759 -109.4530 264° West 471 542 36,000  Level FlightAware ADS-B (KMTJ)
03:15PM 39.6683 -109.5465 264° West 470 541 36,000  Level FlightAware ADS-B (KMTJ)
03:15PM 39.6616 -109.6281 264° West 470 541 36,000  Level FlightAware ADS-B (KMTJ)
03:16PM 39.6534 -109.7258 264° West 470 541 36,000  Level FlightAware ADS-B (KMTJ)
03:17PM 39.6435 -109.8423 264° West 472 543 36,000  Level FlightAware ADS-B (KMTJ)
03:17PM 39.6360 -109.9293 264° West 472 543 36,000  Level FlightAware ADS-B (KMTJ)
03:18PM 39.6272 -110.0302 264° West 472 543 36,000  Level FlightAware ADS-B (KMTJ)
03:18PM 39.6201 -110.1115 264° West 472 543 36,000  Level FlightAware ADS-B (KMTJ)
03:19PM 39.6119 -110.2034 263° West 471 542 36,000  Level FlightAware ADS-B (KMTJ)
03:19PM 39.6043 -110.2895 263° West 469 540 36,000  Level FlightAware ADS-B (KMTJ)
03:20PM 39.5969 -110.3713 263° West 467 537 36,000  Level FlightAware ADS-B (KMTJ)
03:20PM 39.5890 -110.4590 263° West 467 537 36,000  Level FlightAware ADS-B (KMTJ)
03:21PM 39.5816 -110.5394 263° West 467 537 36,000  Level FlightAware ADS-B (KMTJ)
03:21PM 39.5736 -110.6259 263° West 467 537 36,000  Level FlightAware ADS-B (KMTJ)
03:22PM 39.5658 -110.7107 263° West 465 535 36,000  Level FlightAware ADS-B (KMTJ)
03:22PM 39.5577 -110.7965 263° West 462 532 36,000  Level FlightAware ADS-B (KMTJ)
03:23PM 39.5499 -110.8788 263° West 462 532 36,000  Level FlightAware ADS-B (KMTJ)
03:23PM 39.5414 -110.9681 263° West 461 531 36,000  Level FlightAware ADS-B (KMTJ)
03:24PM 39.5340 -111.0451 263° West 460 529 36,000  Level FlightAware ADS-B (KMTJ)
03:24PM 39.5257 -111.1305 263° West 459 528 36,000  Level FlightAware ADS-B (KMTJ)
03:25PM 39.5238 -111.1510 263° West 459 528 36,000  Level FlightAware ADS-B
03:25PM 39.5163 -111.2278 263° West 459 528 36,000  Level FlightAware ADS-B (KMTJ)
03:25PM 39.5153 -111.2380 263° West 460 529 36,000  Level FlightAware ADS-B
03:25PM 39.5082 -111.3095 263° West 461 531 36,000  Level FlightAware ADS-B (KMTJ)
03:26PM 39.5072 -111.3200 263° West 461 531 36,000  Level FlightAware ADS-B
03:26PM 39.4999 -111.3935 263° West 460 529 36,000  Level FlightAware ADS-B (KMTJ)
03:26PM 39.4990 -111.4030 263° West 460 529 36,000  Level FlightAware ADS-B
03:27PM 39.4907 -111.4860 263° West 460 529 36,000  Level FlightAware ADS-B
03:27PM 39.4823 -111.5690 263° West 460 529 36,000  Level FlightAware ADS-B
03:27PM 39.4776 -111.6161 263° West 461 531 36,000  Level FlightAware ADS-B
03:28PM 39.4738 -111.6530 263° West 461 531 36,000  Level FlightAware ADS-B
03:28PM 39.4651 -111.7380 262° West 463 533 36,000  Level FlightAware ADS-B
03:29PM 39.4567 -111.8200 262° West 465 535 36,000  Level FlightAware ADS-B
03:29PM 39.4476 -111.9080 262° West 465 535 36,000  Level FlightAware ADS-B
03:30PM 39.4388 -111.9920 262° West 464 534 36,000  Level FlightAware ADS-B
03:30PM 39.4299 -112.0770 262° West 464 534 36,000  Level FlightAware ADS-B
03:31PM 39.4212 -112.1590 262° West 464 534 36,000  Level FlightAware ADS-B
03:31PM 39.4181 -112.1888 262° West 465 535 36,000  Level FlightAware ADS-B
03:31PM 39.4124 -112.2420 262° West 465 535 36,000  Level FlightAware ADS-B
03:31PM 39.4083 -112.2801 262° West 465 535 36,000  Level FlightAware ADS-B
03:32PM 39.4034 -112.3260 262° West 464 534 36,000  Level FlightAware ADS-B
03:32PM 39.3944 -112.4100 262° West 463 533 36,000  Level FlightAware ADS-B
03:33PM 39.3853 -112.4930 262° West 465 535 36,000  Level FlightAware ADS-B
03:33PM 39.3807 -112.5351 262° West 466 536 36,000  Level FlightAware ADS-B
03:33PM 39.3759 -112.5780 262° West 466 536 36,000  Level FlightAware ADS-B
03:34PM 39.3679 -112.6504 262° West 465 535 36,000  Level FlightAware ADS-B
03:34PM 39.3654 -112.6730 262° West 465 535 36,000  Level FlightAware ADS-B
03:34PM 39.3563 -112.7550 262° West 465 535 36,000  Level FlightAware ADS-B
03:35PM 39.3502 -112.8092 262° West 464 534 36,000  Level FlightAware ADS-B
03:35PM 39.3470 -112.8380 262° West 464 534 36,000  Level FlightAware ADS-B
03:35PM 39.3377 -112.9210 262° West 463 533 36,000  Level FlightAware ADS-B
03:36PM 39.3284 -113.0030 262° West 463 533 36,000  Level FlightAware ADS-B
03:37PM 39.3116 -113.1505 262° West 463 533 36,000  Level FlightAware ADS-B
03:37PM 39.3089 -113.1730 261° West 463 533 36,000  Level FlightAware ADS-B
03:38PM 39.2950 -113.2880 261° West 462 532 36,000  Level FlightAware
03:38PM 39.2835 -113.3743 260° West 464 534 36,000  Level FlightAware ADS-B
03:39PM 39.2670 -113.4910 260° West 461 531 36,000  Level FlightAware
03:39PM 39.2560 -113.5750 260° West 460 529 36,000  Level FlightAware
03:40PM 39.2390 -113.6860 259° West 460 529 36,000  Level FlightAware
03:41PM 39.2260 -113.7910 261° West 460 529 36,000  Level FlightAware
03:41PM 39.2090 -113.9080 259° West 460 529 36,000  Level FlightAware
03:42PM 39.1960 -113.9930 259° West 460 529 36,000  Level FlightAware
03:43PM 39.1830 -114.0760 259° West 460 529 36,000  Level FlightAware
03:43PM 39.1700 -114.1650 259° West 460 529 36,000  Level FlightAware
03:44PM 39.1580 -114.2430 259° West 460 529 36,000  Level FlightAware
03:44PM 39.1450 -114.3280 259° West 460 529 36,000  Level FlightAware
03:45PM 39.1330 -114.4100 259° West 460 529 36,000  Level FlightAware
03:46PM 39.1200 -114.4950 259° West 460 529 36,000  Level FlightAware
03:46PM 39.1040 -114.6000 259° West 460 529 36,000  Level FlightAware
03:47PM 39.0920 -114.6850 260° West 460 529 36,000  Level FlightAware
03:48PM 39.0790 -114.7690 259° West 460 529 36,000  Level FlightAware
03:48PM 39.0660 -114.8520 259° West 460 529 36,000  Level FlightAware
03:49PM 39.0540 -114.9340 259° West 460 529 36,000  Level FlightAware
03:50PM 39.0410 -115.0160 258° West 460 529 36,000  Level FlightAware
03:50PM 39.0290 -115.0980 259° West 460 529 36,000  Level FlightAware
03:51PM 39.0170 -115.1810 259° West 460 529 36,000 1,680 Level FlightAware
03:51PM 38.9783 -115.4619 259° West 446 513 38,000 1,200 Climbing Salt Lake Center
03:52PM 38.9539 -115.6150 258° West 440 506 38,000  Level Salt Lake Center
03:53PM 38.9294 -115.7703 259° West 443 510 38,000  Level Salt Lake Center
03:54PM 38.9000 -115.9575 259° West 447 514 38,000  Level Salt Lake Center
04:00PM 38.7670 -116.7800 259° West 38,000  Level FlightAware
04:00PM 38.7490 -116.8860 258° West 411 473 38,000  Level FlightAware
04:01PM 38.7320 -116.9910 258° West 442 509 38,000  Level FlightAware
04:02PM 38.7110 -117.1110 257° West 443 510 38,000  Level FlightAware
04:03PM 38.6980 -117.1920 258° West 443 510 38,000  Level FlightAware
04:03PM 38.6850 -117.2720 258° West 443 510 38,000  Level FlightAware
04:04PM 38.6540 -117.4470 257° West 482 555 38,000  Level FlightAware
04:05PM 38.6390 -117.5360 258° West 444 511 38,000  Level FlightAware
04:05PM 38.6260 -117.6360 261° West 445 512 38,000  Level FlightAware
04:06PM 38.6160 -117.7110 260° West 445 512 38,000  Level FlightAware
04:07PM 38.6060 -117.7910 261° West 445 512 38,000  Level FlightAware
04:07PM 38.5970 -117.8700 262° West 445 512 38,000  Level FlightAware
04:08PM 38.6030 -118.0210 273° West 442 509 38,000  Level FlightAware
04:08PM 38.5980 -118.1110 266° West 441 507 38,000  Level FlightAware
04:09PM 38.5920 -118.1940 265° West 442 509 38,000  Level FlightAware
04:09PM 38.5860 -118.2920 266° West 444 511 38,000  Level FlightAware
04:10PM 38.5790 -118.3880 265° West 444 511 38,000  Level FlightAware
04:11PM 38.5740 -118.4650 265° West 442 509 38,000  Level FlightAware
04:11PM 38.5670 -118.5680 265° West 440 506 38,000  Level FlightAware
04:12PM 38.5610 -118.6520 265° West 440 506 38,000  Level FlightAware
04:12PM 38.5530 -118.7600 265° West 441 507 38,000  Level FlightAware
04:13PM 38.5515 -118.7866 266° West 441 507 38,000  Level FlightAware ADS-B (KAHC)
04:14PM 38.5414 -118.9276 265° West 443 510 38,000  Level FlightAware ADS-B (KAHC)
04:14PM 38.5330 -119.0370 264° West 443 510 38,000  Level FlightAware
04:15PM 38.5276 -119.1165 265° West 445 512 38,000  Level FlightAware ADS-B (KAHC)
04:15PM 38.5222 -119.1901 265° West 445 512 38,000  Level FlightAware ADS-B (KAHC)
04:16PM 38.5138 -119.3013 265° West 445 512 38,000  Level FlightAware ADS-B (KAHC)
04:16PM 38.5080 -119.3783 265° West 444 511 38,000  Level FlightAware ADS-B (KAHC)
04:17PM 38.4987 -119.4995 264° West 444 511 38,000  Level FlightAware ADS-B (KAHC)
04:18PM 38.4930 -119.5730 264° West 445 512 38,000  Level FlightAware ADS-B (KAHC)
04:18PM 38.4850 -119.6700 264° West 446 513 38,000  Level FlightAware
04:18PM 38.4839 -119.6885 266° West 446 513 38,000  Level FlightAware ADS-B (KAHC)
04:20PM 38.4700 -119.8630 264° West 447 514 38,000  Level FlightAware
04:20PM 38.4685 -119.8816 264° West 447 514 38,000  Level FlightAware ADS-B (KAHC)
04:20PM 38.4594 -119.9939 264° West 445 512 38,000  Level FlightAware ADS-B (KAHC)
04:21PM 38.4490 -120.1210 264° West 447 514 38,000  Level FlightAware ADS-B (KAHC)
04:22PM 38.4410 -120.2180 264° West 446 513 38,000  Level FlightAware
04:22PM 38.4391 -120.2406 264° West 445 512 38,000  Level FlightAware ADS-B (KAHC)
04:23PM 38.4250 -120.4050 264° West 445 512 38,000  Level FlightAware
04:24PM 38.4170 -120.4990 264° West 442 509 38,000  Level FlightAware
04:24PM 38.4089 -120.5950 264° West 440 506 38,000  Level FlightAware ADS-B
04:25PM 38.4028 -120.6650 264° West 440 506 38,000  Level FlightAware ADS-B (KAHC)
04:25PM 38.4020 -120.6750 264° West 440 506 38,000  Level FlightAware ADS-B
04:25PM 38.3951 -120.7530 264° West 440 506 38,000  Level FlightAware ADS-B
04:25PM 38.3941 -120.7647 263° West 440 506 38,000  Level FlightAware ADS-B (KAHC)
04:26PM 38.3879 -120.8330 263° West 440 506 38,000  Level FlightAware ADS-B
04:26PM 38.3780 -120.9440 264° West 439 505 38,000  Level FlightAware
04:27PM 38.3741 -120.9880 264° West 440 506 38,000  Level FlightAware ADS-B
04:28PM 38.3620 -121.1250 264° West 438 504 38,000  Level FlightAware
04:28PM 38.3530 -121.2170 263° West 438 504 38,000  Level FlightAware
04:29PM 38.3450 -121.3080 264° West 440 506 38,000  Level FlightAware
04:29PM 38.3370 -121.3920 263° West 440 506 38,000  Level FlightAware
04:30PM 38.3279 -121.4880 263° West 440 506 38,000  Level FlightAware ADS-B
04:31PM 38.3190 -121.5770 263° West 441 507 38,000  Level FlightAware
04:31PM 38.3169 -121.6030 264° West 441 507 38,000  Level FlightAware ADS-B
04:31PM 38.3091 -121.6850 263° West 441 507 38,000  Level FlightAware ADS-B
04:32PM 38.3009 -121.7690 263° West 442 509 38,000  Level FlightAware ADS-B
04:32PM 38.2933 -121.8480 263° West 443 510 38,000  Level FlightAware ADS-B
04:33PM 38.2850 -121.9330 263° West 444 511 38,000  Level FlightAware ADS-B
04:33PM 38.2761 -122.0220 263° West 444 511 38,000  Level FlightAware ADS-B
04:34PM 38.2658 -122.1240 263° West 445 512 38,000  Level FlightAware ADS-B
04:35PM 38.2569 -122.2140 263° West 448 516 38,000  Level FlightAware ADS-B
04:35PM 38.2490 -122.2940 263° West 449 517 38,000  Level FlightAware
04:36PM 38.2400 -122.3800 262° West 449 517 38,000  Level FlightAware
04:36PM 38.2310 -122.4720 263° West 449 517 38,000  Level FlightAware
04:37PM 38.2210 -122.5660 262° West 448 516 38,000  Level FlightAware
04:38PM 38.2120 -122.6600 263° West 446 513 38,000  Level FlightAware
04:38PM 38.2070 -122.7550 266° West 446 513 38,000  Level FlightAware
04:39PM 38.2020 -122.8370 266° West 445 512 38,000  Level FlightAware
04:39PM 38.1940 -122.9480 265° West 445 512 38,000  Level FlightAware
04:40PM 38.1890 -123.0300 266° West 445 512 38,000  Level FlightAware
04:41PM 38.1820 -123.1250 265° West 443 510 38,000  Level FlightAware
04:41PM 38.1750 -123.2200 265° West 443 510 38,000  Level FlightAware
04:42PM 38.1690 -123.3110 265° West 442 509 38,000  Level FlightAware
04:42PM 38.1620 -123.4110 265° West 440 506 38,000  Level FlightAware
04:43PM 38.1540 -123.5200 265° West 438 504 38,000  Level FlightAware
04:44PM 38.1480 -123.5940 264° West 438 504 38,000  Level FlightAware
04:44PM 38.1410 -123.7020 265° West 438 504 38,000  Level FlightAware
04:45PM 38.1340 -123.7850 264° West 438 504 38,000  Level FlightAware
04:46PM 38.1270 -123.8940 265° West 438 504 38,000  Level FlightAware
04:46PM 38.1210 -123.9750 265° West 438 504 38,000  Level FlightAware
04:47PM 38.1160 -124.0490 265° West 438 504 38,000  Level FlightAware
04:47PM 38.1100 -124.1270 264° West 438 504 38,000  Level FlightAware
04:48PM 38.1050 -124.2080 266° West 438 504 38,000  Level FlightAware
04:49PM 38.0990 -124.2860 264° West 438 504 38,000  Level FlightAware
04:49PM 38.0940 -124.3690 266° West 438 504 38,000  Level FlightAware
04:50PM 38.0870 -124.4720 265° West 438 504 38,000  Level FlightAware
04:51PM 38.0810 -124.5500 264° West 438 504 38,000  Level FlightAware
04:51PM 38.0760 -124.6310 266° West 438 504 38,000  Level FlightAware
04:52PM 38.0710 -124.7050 265° West 438 504 38,000  Level FlightAware
04:52PM 38.0650 -124.7880 265° West 438 504 38,000  Level FlightAware
04:53PM 38.0600 -124.8640 265° West 438 504 38,000  Level FlightAware
04:54PM 38.0540 -124.9430 265° West 438 504 38,000  Level FlightAware
04:54PM 38.0490 -125.0230 265° West 438 504 38,000  Level FlightAware
04:55PM 38.0440 -125.0970 265° West 438 504 38,000  Level FlightAware
04:55PM 38.0047 -125.3758 265° West 439 505 38,000 -120 Level Oakland Center
04:56PM 37.9914 -125.5283 264° West 437 503 37,900 -60 Descending Oakland Center
04:57PM 37.9747 -125.7117 263° West 438 504 37,900  Level Oakland Center
04:58PM 37.9600 -125.8658 263° West 439 505 38,000  Climbing Oakland Center
04:59PM 37.9461 -126.0189 263° West 440 506 37,900 -60 Descending Oakland Center
05:00PM 37.9308 -126.1722 263° West 440 506 37,900  Level Oakland Center
05:02PM 37.9169 -126.3194 263° West 439 505 37,900  Level Oakland Center
05:03PM 37.9031 -126.4747 264° West 442 509 37,900  Level Oakland Center
05:04PM 37.8864 -126.6297 262° West 444 511 37,900  Level Oakland Center
05:05PM 37.8703 -126.7844 263° West 444 511 37,900  Level Oakland Center
05:06PM 37.8556 -126.9400 263° West 445 512 38,000 60 Climbing Oakland Center
05:06PM 37.8500 -127.0000 271° West 446 513 38,000  Level Oakland Oceanic (ODAPS)
05:07PM 37.8500 -127.2333 270° West 449 517 38,000  Level Oakland Oceanic (ODAPS)
05:13PM 37.8527 -128.1054 270° West 446 513 38,000  Level FlightAware Transoceanic
05:13PM 37.8500 -128.1667 270° West 449 517 38,000  Level Oakland Oceanic (ODAPS)
05:14PM 37.8515 -128.2099 270° West 449 517 38,000  Level FlightAware Transoceanic
05:15PM 37.8510 -128.3727 270° West 449 517 38,000  Level FlightAware Transoceanic
05:16PM 37.8502 -128.5354 270° West 449 517 38,000  Level FlightAware Transoceanic
05:17PM 37.8492 -128.6982 270° West 449 517 38,000  Level FlightAware Transoceanic
05:18PM 37.8480 -128.8609 269° West 449 517 38,000  Level FlightAware Transoceanic
05:19PM 37.8466 -129.0237 269° West 449 517 38,000  Level FlightAware Transoceanic
05:20PM 37.8444 -129.1668 269° West 449 517 38,000  Level FlightAware Transoceanic
05:21PM 37.8427 -129.3334 269° West 449 517 38,000  Level FlightAware Transoceanic
05:22PM 37.8407 -129.5001 269° West 449 517 38,000  Level FlightAware Transoceanic
05:23PM 37.8385 -129.6667 269° West 449 517 38,000  Level FlightAware Transoceanic
05:24PM 37.8360 -129.8334 269° West 449 517 38,000  Level FlightAware Transoceanic
05:25PM 37.8333 -130.0000 295° West 449 517 38,000  Level FlightAware Transoceanic
05:25PM 37.8333 -130.0000 295° West 462 532 38,000  Level Oakland Oceanic (ODAPS)
05:26PM 37.8875 -130.1447 295° West 449 517 38,000  Level FlightAware Transoceanic
05:27PM 37.9415 -130.2896 295° West 449 517 38,000  Level FlightAware Transoceanic
05:27PM 37.9500 -130.3333 295° West 462 532 38,000  Level Oakland Oceanic (ODAPS)
05:28PM 37.9953 -130.4346 295° West 449 517 38,000  Level FlightAware Transoceanic
05:29PM 38.0489 -130.5799 295° West 449 517 38,000  Level FlightAware Transoceanic
05:30PM 38.1024 -130.7255 295° West 449 517 38,000  Level FlightAware Transoceanic
05:31PM 38.1605 -130.8846 295° West 462 532 38,000  Level FlightAware Transoceanic
05:32PM 38.2144 -131.0329 295° West 462 532 38,000  Level FlightAware Transoceanic
05:33PM 38.2681 -131.1813 295° West 462 532 38,000  Level FlightAware Transoceanic
05:34PM 38.3274 -131.3652 295° West 462 532 38,000  Level FlightAware Transoceanic
05:35PM 38.3806 -131.5134 295° West 462 532 38,000  Level FlightAware Transoceanic
05:36PM 38.4336 -131.6619 294° West 462 532 38,000  Level FlightAware Transoceanic
05:37PM 38.4864 -131.8106 294° West 462 532 38,000  Level FlightAware Transoceanic
05:38PM 38.5390 -131.9596 294° West 462 532 38,000  Level FlightAware Transoceanic
05:39PM 38.5915 -132.1087 294° West 462 532 38,000  Level FlightAware Transoceanic
05:40PM 38.6437 -132.2581 294° West 462 532 38,000  Level FlightAware Transoceanic
05:41PM 38.6958 -132.4077 294° West 462 532 38,000  Level FlightAware Transoceanic
05:41PM 38.7000 -132.3833 294° West 467 537 38,000  Level Oakland Oceanic (ODAPS)
05:42PM 38.7476 -132.5575 294° West 462 532 38,000  Level FlightAware Transoceanic
05:43PM 38.7993 -132.7075 294° West 462 532 38,000  Level FlightAware Transoceanic
05:44PM 38.8507 -132.8577 294° West 462 532 38,000  Level FlightAware Transoceanic
05:45PM 38.9020 -133.0082 294° West 462 532 38,000  Level FlightAware Transoceanic
05:46PM 38.9531 -133.1588 294° West 462 532 38,000  Level FlightAware Transoceanic
05:47PM 39.0079 -133.2883 293° West 467 537 38,000  Level FlightAware Transoceanic
05:48PM 39.0586 -133.4399 293° West 467 537 38,000  Level FlightAware Transoceanic
05:49PM 39.1090 -133.5917 293° West 467 537 38,000  Level FlightAware Transoceanic
05:50PM 39.1592 -133.7437 293° West 467 537 38,000  Level FlightAware Transoceanic
05:51PM 39.2093 -133.8960 293° West 467 537 38,000  Level FlightAware Transoceanic
05:52PM 39.2591 -134.0484 293° West 467 537 38,000  Level FlightAware Transoceanic
05:53PM 39.3088 -134.2011 293° West 467 537 38,000  Level FlightAware Transoceanic
05:54PM 39.3582 -134.3540 293° West 467 537 38,000  Level FlightAware Transoceanic
05:55PM 39.4075 -134.5071 293° West 467 537 38,000  Level FlightAware Transoceanic
05:55PM 39.4000 -134.5000 293° West 472 543 38,000  Level Oakland Oceanic (ODAPS)
05:56PM 39.4565 -134.6604 292° West 467 537 38,000  Level FlightAware Transoceanic
05:57PM 39.5053 -134.8140 292° West 467 537 38,000  Level FlightAware Transoceanic
05:58PM 39.5540 -134.9677 292° West 467 537 38,000  Level FlightAware Transoceanic
05:59PM 39.6024 -135.1217 292° West 467 537 38,000  Level FlightAware Transoceanic
06:00PM 39.6507 -135.2759 292° West 467 537 38,000  Level FlightAware Transoceanic
06:01PM 39.6926 -135.4243 292° West 472 543 38,000  Level FlightAware Transoceanic
06:02PM 39.7406 -135.5791 292° West 472 543 38,000  Level FlightAware Transoceanic
06:03PM 39.7884 -135.7341 292° West 472 543 38,000  Level FlightAware Transoceanic
06:04PM 39.8361 -135.8894 292° West 472 543 38,000  Level FlightAware Transoceanic
06:05PM 39.8835 -136.0448 292° West 472 543 38,000  Level FlightAware Transoceanic
06:06PM 39.9307 -136.2005 292° West 472 543 38,000  Level FlightAware Transoceanic
06:07PM 39.9777 -136.3564 291° West 472 543 38,000  Level FlightAware Transoceanic
06:08PM 40.0245 -136.5125 291° West 472 543 38,000  Level FlightAware Transoceanic
06:09PM 40.0711 -136.6688 291° West 472 543 38,000 780 Level FlightAware Transoceanic
06:09PM 40.0833 -136.6833 291° West 465 535 39,000  Climbing Oakland Oceanic (ODAPS)
06:10PM 40.1175 -136.8253 291° West 472 543 38,000 -600 Descending FlightAware Transoceanic
06:11PM 40.1637 -136.9820 291° West 472 543 38,000  Level FlightAware Transoceanic
06:12PM 40.2096 -137.1390 291° West 472 543 38,000  Level FlightAware Transoceanic
06:13PM 40.2554 -137.2961 291° West 472 543 38,000  Level FlightAware Transoceanic
06:14PM 40.3009 -137.4535 291° West 472 543 38,000 480 Level FlightAware Transoceanic
06:15PM 40.3549 -137.6217 290° West 465 535 39,000 480 Climbing FlightAware Transoceanic
06:16PM 40.3994 -137.7788 290° West 465 535 39,000  Level FlightAware Transoceanic
06:17PM 40.4437 -137.9361 290° West 465 535 39,000  Level FlightAware Transoceanic
06:18PM 40.4878 -138.0936 290° West 465 535 39,000  Level FlightAware Transoceanic
06:19PM 40.5317 -138.2514 290° West 465 535 39,000  Level FlightAware Transoceanic
06:20PM 40.5753 -138.4093 290° West 465 535 39,000  Level FlightAware Transoceanic
06:21PM 40.6188 -138.5675 290° West 465 535 39,000  Level FlightAware Transoceanic
06:22PM 40.6620 -138.7258 290° West 465 535 39,000  Level FlightAware Transoceanic
06:23PM 40.7050 -138.8844 290° West 465 535 39,000  Level FlightAware Transoceanic
06:23PM 40.7000 -138.8833 290° West 459 528 39,000  Level Oakland Oceanic (ODAPS)
06:24PM 40.7478 -139.0432 290° West 465 535 39,000  Level FlightAware Transoceanic
06:25PM 40.7904 -139.2021 289° West 465 535 39,000  Level FlightAware Transoceanic
06:26PM 40.8327 -139.3613 289° West 465 535 39,000  Level FlightAware Transoceanic
06:27PM 40.8749 -139.5207 289° West 465 535 39,000  Level FlightAware Transoceanic
06:28PM 40.9168 -139.6802 289° West 465 535 39,000  Level FlightAware Transoceanic
06:29PM 40.9578 -139.8399 289° West 459 528 39,000  Level FlightAware Transoceanic
06:30PM 41.0000 -140.0000 281° West 459 528 39,000  Level FlightAware Transoceanic
06:30PM 41.0000 -140.0000 281° West 460 529 39,000  Level Oakland Oceanic (ODAPS)
06:31PM 41.0241 -140.1666 281° West 459 528 39,000  Level FlightAware Transoceanic
06:32PM 41.0479 -140.3333 281° West 459 528 39,000  Level FlightAware Transoceanic
06:33PM 41.0715 -140.5001 281° West 459 528 39,000  Level FlightAware Transoceanic
06:34PM 41.0949 -140.6671 280° West 459 528 39,000  Level FlightAware Transoceanic
06:35PM 41.1180 -140.8342 280° West 459 528 39,000  Level FlightAware Transoceanic
06:36PM 41.1409 -141.0013 280° West 460 529 39,000  Level FlightAware Transoceanic
06:36PM 41.1667 -141.1333 280° West 454 522 39,000  Level Oakland Oceanic (ODAPS)
06:37PM 41.1636 -141.1687 280° West 460 529 39,000  Level FlightAware Transoceanic
06:38PM 41.1860 -141.3361 280° West 460 529 39,000  Level FlightAware Transoceanic
06:39PM 41.2081 -141.5036 280° West 460 529 39,000  Level FlightAware Transoceanic
06:40PM 41.2301 -141.6712 280° West 460 529 39,000  Level FlightAware Transoceanic
06:41PM 41.2517 -141.8390 280° West 460 529 39,000  Level FlightAware Transoceanic
06:42PM 41.2732 -142.0069 280° West 460 529 39,000  Level FlightAware Transoceanic
06:43PM 41.2950 -142.1245 279° West 454 522 39,000  Level FlightAware Transoceanic
06:44PM 41.3155 -142.2901 279° West 454 522 39,000  Level FlightAware Transoceanic
06:45PM 41.3358 -142.4557 279° West 454 522 39,000  Level FlightAware Transoceanic
06:46PM 41.3559 -142.6215 279° West 454 522 39,000  Level FlightAware Transoceanic
06:47PM 41.3758 -142.7874 279° West 454 522 39,000  Level FlightAware Transoceanic
06:48PM 41.3954 -142.9534 279° West 454 522 39,000  Level FlightAware Transoceanic
06:49PM 41.4147 -143.1194 279° West 454 522 39,000  Level FlightAware Transoceanic
06:50PM 41.4339 -143.2856 279° West 454 522 39,000  Level FlightAware Transoceanic
06:50PM 41.4500 -143.4500 279° West 457 526 39,000  Level Oakland Oceanic (ODAPS)
06:51PM 41.4528 -143.4519 279° West 454 522 39,000  Level FlightAware Transoceanic
06:52PM 41.4714 -143.6182 278° West 454 522 39,000  Level FlightAware Transoceanic
06:53PM 41.4898 -143.7847 278° West 454 522 39,000  Level FlightAware Transoceanic
06:54PM 41.5080 -143.9512 278° West 454 522 39,000  Level FlightAware Transoceanic
06:55PM 41.5259 -144.1179 278° West 454 522 39,000  Level FlightAware Transoceanic
06:56PM 41.5436 -144.2846 278° West 454 522 39,000  Level FlightAware Transoceanic
06:57PM 41.5587 -144.4498 278° West 457 526 39,000  Level FlightAware Transoceanic
06:58PM 41.5760 -144.6168 278° West 457 526 39,000  Level FlightAware Transoceanic
06:59PM 41.5930 -144.7839 278° West 457 526 39,000  Level FlightAware Transoceanic
07:00PM 41.6098 -144.9510 278° West 457 526 39,000  Level FlightAware Transoceanic
07:01PM 41.6264 -145.1182 277° West 457 526 39,000  Level FlightAware Transoceanic
07:02PM 41.6427 -145.2856 277° West 457 526 39,000  Level FlightAware Transoceanic
07:03PM 41.6588 -145.4529 277° West 457 526 39,000  Level FlightAware Transoceanic
07:04PM 41.6746 -145.6204 277° West 457 526 39,000  Level FlightAware Transoceanic
07:04PM 41.6833 -145.7333 277° West 445 512 39,000  Level Oakland Oceanic (ODAPS)
07:05PM 41.6902 -145.7880 277° West 457 526 39,000  Level FlightAware Transoceanic
07:06PM 41.7055 -145.9556 277° West 457 526 39,000  Level FlightAware Transoceanic
07:07PM 41.7206 -146.1233 277° West 457 526 39,000  Level FlightAware Transoceanic
07:08PM 41.7355 -146.2911 277° West 457 526 39,000  Level FlightAware Transoceanic
07:09PM 41.7501 -146.4590 277° West 457 526 39,000  Level FlightAware Transoceanic
07:10PM 41.7644 -146.6270 276° West 457 526 39,000  Level FlightAware Transoceanic
07:11PM 41.7737 -146.7533 276° West 445 512 39,000  Level FlightAware Transoceanic
07:12PM 41.7879 -146.9236 276° West 445 512 39,000  Level FlightAware Transoceanic
07:13PM 41.8018 -147.0939 276° West 445 512 39,000  Level FlightAware Transoceanic
07:14PM 41.8155 -147.2644 276° West 445 512 39,000  Level FlightAware Transoceanic
07:15PM 41.8289 -147.4348 276° West 445 512 39,000  Level FlightAware Transoceanic
07:16PM 41.8421 -147.6054 276° West 445 512 39,000  Level FlightAware Transoceanic
07:17PM 41.8550 -147.7760 276° West 445 512 39,000  Level FlightAware Transoceanic
07:18PM 41.8677 -147.9467 276° West 445 512 39,000  Level FlightAware Transoceanic
07:18PM 41.8667 -148.0167 276° West 453 521 39,000  Level Oakland Oceanic (ODAPS)
07:19PM 41.8801 -148.1175 276° West 445 512 39,000  Level FlightAware Transoceanic
07:20PM 41.8923 -148.2883 275° West 445 512 39,000  Level FlightAware Transoceanic
07:21PM 41.9042 -148.4592 275° West 445 512 39,000  Level FlightAware Transoceanic
07:22PM 41.9159 -148.6302 275° West 445 512 39,000  Level FlightAware Transoceanic
07:23PM 41.9273 -148.8012 275° West 445 512 39,000  Level FlightAware Transoceanic
07:24PM 41.9376 -149.0073 275° West 453 521 39,000  Level FlightAware Transoceanic
07:25PM 41.9486 -149.1726 275° West 453 521 39,000  Level FlightAware Transoceanic
07:26PM 41.9594 -149.3380 275° West 453 521 39,000  Level FlightAware Transoceanic
07:27PM 41.9699 -149.5034 275° West 453 521 39,000  Level FlightAware Transoceanic
07:28PM 41.9801 -149.6689 275° West 453 521 39,000  Level FlightAware Transoceanic
07:29PM 41.9902 -149.8344 275° West 453 521 39,000  Level FlightAware Transoceanic
07:30PM 42.0000 -150.0000 273° West 453 521 39,000 540 Level FlightAware Transoceanic
07:30PM 42.0000 -150.0000 273° West 451 519 40,000  Climbing Oakland Oceanic (ODAPS)
07:31PM 42.0072 -150.1691 273° West 453 521 39,000 -840 Descending FlightAware Transoceanic
07:32PM 42.0142 -150.3383 273° West 453 521 39,000 660 Level FlightAware Transoceanic
07:32PM 42.0167 -150.2833 273° West 451 519 40,000  Climbing Oakland Oceanic (ODAPS)
07:33PM 42.0210 -150.5075 273° West 453 521 39,000 -660 Descending FlightAware Transoceanic
07:34PM 42.0274 -150.6767 273° West 453 521 39,000  Level FlightAware Transoceanic
07:35PM 42.0337 -150.8460 273° West 453 521 39,000  Level FlightAware Transoceanic
07:36PM 42.0397 -151.0153 273° West 453 521 39,000 480 Level FlightAware Transoceanic
07:37PM 42.0397 -151.0153 273° West 451 519 40,000 480 Climbing FlightAware Transoceanic
07:38PM 42.0530 -151.2872 272° West 451 519 40,000  Level FlightAware Transoceanic
07:39PM 42.0582 -151.4546 272° West 451 519 40,000  Level FlightAware Transoceanic
07:40PM 42.0631 -151.6221 272° West 451 519 40,000  Level FlightAware Transoceanic
07:41PM 42.0678 -151.7895 272° West 451 519 40,000  Level FlightAware Transoceanic
07:42PM 42.0723 -151.9570 272° West 451 519 40,000  Level FlightAware Transoceanic
07:43PM 42.0765 -152.1245 272° West 451 519 40,000  Level FlightAware Transoceanic
07:44PM 42.0805 -152.2921 272° West 451 519 40,000  Level FlightAware Transoceanic
07:45PM 42.0843 -152.4596 272° West 451 519 40,000  Level FlightAware Transoceanic
07:46PM 42.0878 -152.6272 272° West 451 519 40,000  Level FlightAware Transoceanic
07:46PM 42.0833 -152.5667 272° West 445 512 40,000  Level Oakland Oceanic (ODAPS)
07:47PM 42.0910 -152.7948 271° West 451 519 40,000  Level FlightAware Transoceanic
07:48PM 42.0940 -152.9624 271° West 451 519 40,000  Level FlightAware Transoceanic
07:49PM 42.0968 -153.1301 271° West 451 519 40,000  Level FlightAware Transoceanic
07:50PM 42.0993 -153.2977 271° West 451 519 40,000  Level FlightAware Transoceanic
07:51PM 42.1016 -153.4653 271° West 451 519 40,000  Level FlightAware Transoceanic
07:52PM 42.1000 -153.5581 271° West 445 512 40,000  Level FlightAware Transoceanic
07:53PM 42.1019 -153.7234 271° West 445 512 40,000  Level FlightAware Transoceanic
07:54PM 42.1036 -153.8887 271° West 445 512 40,000  Level FlightAware Transoceanic
07:55PM 42.1051 -154.0540 271° West 445 512 40,000  Level FlightAware Transoceanic
07:56PM 42.1063 -154.2193 271° West 445 512 40,000  Level FlightAware Transoceanic
07:57PM 42.1073 -154.3846 270° West 445 512 40,000  Level FlightAware Transoceanic
07:58PM 42.1081 -154.5499 270° West 445 512 40,000  Level FlightAware Transoceanic
07:59PM 42.1086 -154.7153 270° West 445 512 40,000  Level FlightAware Transoceanic
08:00PM 42.1089 -154.8806 270° West 445 512 40,000  Level FlightAware Transoceanic
08:00PM 42.1167 -154.8500 270° West 455 524 40,000  Level Oakland Oceanic (ODAPS)
08:01PM 42.1089 -155.0459 270° West 445 512 40,000  Level FlightAware Transoceanic
08:02PM 42.1087 -155.2112 270° West 445 512 40,000  Level FlightAware Transoceanic
08:03PM 42.1083 -155.3766 270° West 445 512 40,000  Level FlightAware Transoceanic
08:04PM 42.1076 -155.5419 270° West 445 512 40,000  Level FlightAware Transoceanic
08:05PM 42.1067 -155.7072 270° West 445 512 40,000  Level FlightAware Transoceanic
08:06PM 42.1118 -155.8812 269° West 455 524 40,000  Level FlightAware Transoceanic
08:07PM 42.1101 -156.0531 269° West 455 524 40,000  Level FlightAware Transoceanic
08:08PM 42.1081 -156.2249 269° West 455 524 40,000  Level FlightAware Transoceanic
08:09PM 42.1059 -156.3967 269° West 455 524 40,000  Level FlightAware Transoceanic
08:10PM 42.1034 -156.5685 269° West 455 524 40,000  Level FlightAware Transoceanic
08:11PM 42.1006 -156.7403 269° West 455 524 40,000  Level FlightAware Transoceanic
08:12PM 42.0976 -156.9121 269° West 455 524 40,000  Level FlightAware Transoceanic
08:13PM 42.0944 -157.0839 268° West 455 524 40,000  Level FlightAware Transoceanic
08:14PM 42.0909 -157.2556 268° West 455 524 40,000  Level FlightAware Transoceanic
08:14PM 42.0833 -157.2333 269° West 466 536 40,000  Level Oakland Oceanic (ODAPS)
08:15PM 42.0871 -157.4274 268° West 455 524 40,000  Level FlightAware Transoceanic
08:16PM 42.0831 -157.5991 268° West 455 524 40,000  Level FlightAware Transoceanic
08:17PM 42.0788 -157.7708 268° West 455 524 40,000  Level FlightAware Transoceanic
08:18PM 42.0743 -157.9424 268° West 455 524 40,000  Level FlightAware Transoceanic
08:19PM 42.0695 -158.1141 268° West 455 524 40,000  Level FlightAware Transoceanic
08:20PM 42.0599 -158.2717 268° West 466 536 40,000  Level FlightAware Transoceanic
08:21PM 42.0550 -158.4446 268° West 466 536 40,000  Level FlightAware Transoceanic
08:22PM 42.0500 -158.6176 268° West 466 536 40,000  Level FlightAware Transoceanic
08:23PM 42.0446 -158.7905 268° West 466 536 40,000  Level FlightAware Transoceanic
08:24PM 42.0390 -158.9634 267° West 466 536 40,000  Level FlightAware Transoceanic
08:25PM 42.0332 -159.1362 267° West 466 536 40,000  Level FlightAware Transoceanic
08:26PM 42.0271 -159.3091 267° West 466 536 40,000  Level FlightAware Transoceanic
08:27PM 42.0207 -159.4819 267° West 466 536 40,000  Level FlightAware Transoceanic
08:27PM 42.0167 -159.6333 267° West 464 534 40,000  Level Oakland Oceanic (ODAPS)
08:28PM 42.0140 -159.6546 267° West 466 536 40,000  Level FlightAware Transoceanic
08:29PM 42.0071 -159.8273 267° West 466 536 40,000  Level FlightAware Transoceanic
08:30PM 42.0000 -160.0000 252° West 466 536 40,000  Level FlightAware Transoceanic
08:30PM 42.0000 -160.0000 252° West 470 541 40,000  Level Oakland Oceanic (ODAPS)
08:31PM 41.9593 -160.1656 252° West 466 536 40,000  Level FlightAware Transoceanic
08:32PM 41.9184 -160.3310 252° West 466 536 40,000  Level FlightAware Transoceanic
08:33PM 41.8773 -160.4962 251° West 466 536 40,000  Level FlightAware Transoceanic
08:34PM 41.8359 -160.6611 251° West 464 534 40,000  Level FlightAware Transoceanic
08:35PM 41.7943 -160.8259 251° West 464 534 40,000  Level FlightAware Transoceanic
08:36PM 41.7524 -160.9904 251° West 470 541 40,000  Level FlightAware Transoceanic
08:37PM 41.7104 -161.1548 251° West 470 541 40,000  Level FlightAware Transoceanic
08:38PM 41.6680 -161.3189 251° West 470 541 40,000  Level FlightAware Transoceanic
08:39PM 41.6255 -161.4828 251° West 470 541 40,000  Level FlightAware Transoceanic
08:40PM 41.5827 -161.6465 251° West 470 541 40,000  Level FlightAware Transoceanic
08:41PM 41.5397 -161.8099 251° West 470 541 40,000  Level FlightAware Transoceanic
08:41PM 41.5167 -161.9333 250° West 475 547 40,000  Level Oakland Oceanic (ODAPS)
08:42PM 41.4964 -161.9731 250° West 470 541 40,000  Level FlightAware Transoceanic
08:43PM 41.4529 -162.1362 250° West 470 541 40,000  Level FlightAware Transoceanic
08:44PM 41.4092 -162.2990 250° West 470 541 40,000  Level FlightAware Transoceanic
08:45PM 41.3653 -162.4616 250° West 470 541 40,000  Level FlightAware Transoceanic
08:46PM 41.3211 -162.6239 250° West 470 541 40,000  Level FlightAware Transoceanic
08:47PM 41.2908 -162.7668 250° West 475 547 40,000  Level FlightAware Transoceanic
08:48PM 41.2449 -162.9328 250° West 475 547 40,000  Level FlightAware Transoceanic
08:49PM 41.1987 -163.0986 250° West 475 547 40,000  Level FlightAware Transoceanic
08:50PM 41.1524 -163.2641 250° West 475 547 40,000  Level FlightAware Transoceanic
08:51PM 41.1058 -163.4294 249° West 475 547 40,000  Level FlightAware Transoceanic
08:52PM 41.0589 -163.5944 249° West 475 547 40,000  Level FlightAware Transoceanic
08:53PM 41.0118 -163.7593 249° West 475 547 40,000  Level FlightAware Transoceanic
08:54PM 40.9645 -163.9238 249° West 475 547 40,000  Level FlightAware Transoceanic
08:55PM 40.9170 -164.0882 249° West 475 547 40,000  Level FlightAware Transoceanic
08:55PM 40.9000 -164.1333 249° West 473 544 40,000  Level Oakland Oceanic (ODAPS)
08:56PM 40.8692 -164.2523 249° West 475 547 40,000  Level FlightAware Transoceanic
08:57PM 40.8212 -164.4162 249° West 475 547 40,000  Level FlightAware Transoceanic
08:58PM 40.7729 -164.5798 249° West 475 547 40,000  Level FlightAware Transoceanic
08:59PM 40.7244 -164.7432 249° West 475 547 40,000  Level FlightAware Transoceanic
09:00PM 40.6757 -164.9064 248° West 475 547 40,000  Level FlightAware Transoceanic
09:01PM 40.6268 -165.0693 248° West 475 547 40,000  Level FlightAware Transoceanic
09:02PM 40.5725 -165.2384 248° West 473 544 40,000  Level FlightAware Transoceanic
09:03PM 40.5249 -165.3954 248° West 473 544 40,000  Level FlightAware Transoceanic
09:04PM 40.4770 -165.5522 248° West 473 544 40,000  Level FlightAware Transoceanic
09:05PM 40.4290 -165.7087 248° West 473 544 40,000  Level FlightAware Transoceanic
09:06PM 40.3807 -165.8650 248° West 473 544 40,000  Level FlightAware Transoceanic
09:07PM 40.3322 -166.0211 248° West 473 544 40,000  Level FlightAware Transoceanic
09:08PM 40.2835 -166.1770 248° West 473 544 40,000  Level FlightAware Transoceanic
09:09PM 40.2346 -166.3326 248° West 473 544 40,000  Level FlightAware Transoceanic
09:09PM 40.2333 -166.3167 248° West 459 528 40,000  Level Oakland Oceanic (ODAPS)
09:10PM 40.1855 -166.4881 247° West 473 544 40,000  Level FlightAware Transoceanic
09:11PM 40.1362 -166.6432 247° West 473 544 40,000  Level FlightAware Transoceanic
09:12PM 40.0866 -166.7982 247° West 473 544 40,000  Level FlightAware Transoceanic
09:13PM 40.0369 -166.9529 247° West 473 544 40,000  Level FlightAware Transoceanic
09:14PM 39.9870 -167.1074 247° West 473 544 40,000  Level FlightAware Transoceanic
09:15PM 39.9480 -167.2126 247° West 459 528 40,000  Level FlightAware Transoceanic
09:16PM 39.8998 -167.3612 247° West 459 528 40,000  Level FlightAware Transoceanic
09:17PM 39.8514 -167.5096 247° West 459 528 40,000  Level FlightAware Transoceanic
09:18PM 39.8028 -167.6578 247° West 459 528 40,000  Level FlightAware Transoceanic
09:19PM 39.7540 -167.8058 247° West 459 528 40,000  Level FlightAware Transoceanic
09:20PM 39.7050 -167.9535 247° West 459 528 40,000  Level FlightAware Transoceanic
09:21PM 39.6559 -168.1010 247° West 459 528 40,000  Level FlightAware Transoceanic
09:22PM 39.6065 -168.2484 246° West 459 528 40,000  Level FlightAware Transoceanic
09:23PM 39.5570 -168.3955 246° West 459 528 40,000  Level FlightAware Transoceanic
09:23PM 39.5500 -168.4000 247° West 452 520 40,000  Level Oakland Oceanic (ODAPS)
09:24PM 39.5073 -168.5424 246° West 459 528 40,000  Level FlightAware Transoceanic
09:25PM 39.4574 -168.6891 246° West 459 528 40,000  Level FlightAware Transoceanic
09:26PM 39.4073 -168.8356 246° West 459 528 40,000  Level FlightAware Transoceanic
09:27PM 39.3570 -168.9819 246° West 459 528 40,000  Level FlightAware Transoceanic
09:28PM 39.3065 -169.1280 246° West 459 528 40,000  Level FlightAware Transoceanic
09:29PM 39.2527 -169.2758 246° West 452 520 40,000  Level FlightAware Transoceanic
09:30PM 39.2025 -169.4211 246° West 452 520 40,000  Level FlightAware Transoceanic
09:31PM 39.1522 -169.5661 246° West 452 520 40,000  Level FlightAware Transoceanic
09:32PM 39.1016 -169.7110 246° West 452 520 40,000  Level FlightAware Transoceanic
09:33PM 39.0509 -169.8556 246° West 452 520 40,000  Level FlightAware Transoceanic
09:34PM 39.0000 -170.0000 259° West 452 520 40,000  Level FlightAware Transoceanic
09:34PM 39.0000 -170.0000 259° West 462 532 40,000  Level Oakland Oceanic (ODAPS)
09:35PM 38.9746 -170.1654 259° West 452 520 40,000  Level FlightAware Transoceanic
09:36PM 38.9490 -170.3307 259° West 452 520 40,000  Level FlightAware Transoceanic
09:37PM 38.9231 -170.4959 259° West 452 520 40,000  Level FlightAware Transoceanic
09:37PM 38.9167 -170.5000 259° West 471 542 40,000  Level Oakland Oceanic (ODAPS)
09:38PM 38.8970 -170.6609 258° West 452 520 40,000  Level FlightAware Transoceanic
09:39PM 38.8707 -170.8258 258° West 452 520 40,000  Level FlightAware Transoceanic
09:40PM 38.8467 -170.9749 258° West 462 532 40,000  Level FlightAware Transoceanic
09:41PM 38.8203 -171.1370 258° West 462 532 40,000  Level FlightAware Transoceanic
09:42PM 38.7938 -171.2990 258° West 462 532 40,000  Level FlightAware Transoceanic
09:43PM 38.7572 -171.4879 258° West 471 542 40,000  Level FlightAware Transoceanic
09:44PM 38.7299 -171.6521 258° West 471 542 40,000  Level FlightAware Transoceanic
09:45PM 38.7023 -171.8162 258° West 471 542 40,000  Level FlightAware Transoceanic
09:46PM 38.6744 -171.9802 258° West 471 542 40,000  Level FlightAware Transoceanic
09:47PM 38.6464 -172.1440 258° West 471 542 40,000  Level FlightAware Transoceanic
09:48PM 38.6181 -172.3077 257° West 471 542 40,000  Level FlightAware Transoceanic
09:49PM 38.5895 -172.4713 257° West 471 542 40,000  Level FlightAware Transoceanic
09:50PM 38.5608 -172.6348 257° West 471 542 40,000  Level FlightAware Transoceanic
09:51PM 38.5318 -172.7981 257° West 471 542 40,000  Level FlightAware Transoceanic
09:51PM 38.5500 -172.6833 257° West 478 550 40,000  Level Oakland Oceanic (ODAPS)
09:52PM 38.5026 -172.9613 257° West 471 542 40,000  Level FlightAware Transoceanic
09:53PM 38.4732 -173.1243 257° West 471 542 40,000  Level FlightAware Transoceanic
09:54PM 38.4435 -173.2872 257° West 471 542 40,000  Level FlightAware Transoceanic
09:55PM 38.4136 -173.4500 257° West 471 542 40,000  Level FlightAware Transoceanic
09:56PM 38.3835 -173.6127 257° West 471 542 40,000  Level FlightAware Transoceanic
09:57PM 38.3698 -173.6762 257° West 478 550 40,000  Level FlightAware Transoceanic
09:58PM 38.3390 -173.8412 257° West 478 550 40,000  Level FlightAware Transoceanic
09:59PM 38.3079 -174.0060 256° West 478 550 40,000  Level FlightAware Transoceanic
10:00PM 38.2766 -174.1707 256° West 478 550 40,000  Level FlightAware Transoceanic
10:01PM 38.2450 -174.3353 256° West 478 550 40,000  Level FlightAware Transoceanic
10:02PM 38.2133 -174.4997 256° West 478 550 40,000  Level FlightAware Transoceanic
10:03PM 38.1813 -174.6640 256° West 478 550 40,000  Level FlightAware Transoceanic
10:04PM 38.1491 -174.8282 256° West 478 550 40,000  Level FlightAware Transoceanic
10:04PM 38.1333 -174.9167 256° West 482 555 40,000  Level Oakland Oceanic (ODAPS)
10:05PM 38.1166 -174.9921 256° West 478 550 40,000  Level FlightAware Transoceanic
10:06PM 38.0839 -175.1560 256° West 478 550 40,000  Level FlightAware Transoceanic
10:07PM 38.0510 -175.3197 256° West 478 550 40,000  Level FlightAware Transoceanic
10:08PM 38.0179 -175.4832 256° West 478 550 40,000  Level FlightAware Transoceanic
10:09PM 37.9845 -175.6466 255° West 478 550 40,000  Level FlightAware Transoceanic
10:10PM 37.9509 -175.8099 255° West 478 550 40,000  Level FlightAware Transoceanic
10:11PM 37.9311 -175.9125 255° West 482 555 40,000  Level FlightAware Transoceanic
10:12PM 37.8966 -176.0779 255° West 482 555 40,000  Level FlightAware Transoceanic
10:13PM 37.8619 -176.2432 255° West 482 555 40,000  Level FlightAware Transoceanic
10:14PM 37.8269 -176.4083 255° West 482 555 40,000  Level FlightAware Transoceanic
10:15PM 37.7917 -176.5732 255° West 482 555 40,000  Level FlightAware Transoceanic
10:16PM 37.7562 -176.7380 255° West 482 555 40,000  Level FlightAware Transoceanic
10:17PM 37.7206 -176.9027 255° West 482 555 40,000  Level FlightAware Transoceanic
10:18PM 37.6847 -177.0672 255° West 482 555 40,000  Level FlightAware Transoceanic
10:18PM 37.6667 -177.1833 254° West 489 563 40,000  Level Oakland Oceanic (ODAPS)
10:19PM 37.6485 -177.2315 254° West 482 555 40,000  Level FlightAware Transoceanic
10:20PM 37.6122 -177.3957 254° West 482 555 40,000  Level FlightAware Transoceanic
10:21PM 37.5756 -177.5597 254° West 482 555 40,000  Level FlightAware Transoceanic
10:22PM 37.5388 -177.7235 254° West 482 555 40,000  Level FlightAware Transoceanic
10:23PM 37.5018 -177.8872 254° West 482 555 40,000  Level FlightAware Transoceanic
10:24PM 37.4645 -178.0507 254° West 482 555 40,000  Level FlightAware Transoceanic
10:25PM 37.4390 -178.1831 254° West 489 563 40,000  Level FlightAware Transoceanic
10:26PM 37.4002 -178.3492 254° West 489 563 40,000  Level FlightAware Transoceanic
10:27PM 37.3613 -178.5150 253° West 489 563 40,000  Level FlightAware Transoceanic
10:28PM 37.3220 -178.6807 253° West 489 563 40,000  Level FlightAware Transoceanic
10:29PM 37.2826 -178.8463 253° West 489 563 40,000  Level FlightAware Transoceanic
10:30PM 37.2429 -179.0116 253° West 489 563 40,000  Level FlightAware Transoceanic
10:31PM 37.2030 -179.1768 253° West 489 563 40,000  Level FlightAware Transoceanic
10:32PM 37.1628 -179.3418 253° West 489 563 40,000  Level FlightAware Transoceanic
10:32PM 37.1333 -179.4667 253° West 488 562 40,000  Level Oakland Oceanic (ODAPS)
10:33PM 37.1225 -179.5066 253° West 489 563 40,000  Level FlightAware Transoceanic
10:34PM 37.0819 -179.6712 253° West 489 563 40,000  Level FlightAware Transoceanic
10:35PM 37.0410 -179.8357 253° West 489 563 40,000  Level FlightAware Transoceanic
10:36PM 37.0000 -180.0000 259° West 489 563 40,000  Level FlightAware Transoceanic
10:36PM 37.0000 180.0000 259° West 496 571 40,000  Level Oakland Oceanic (ODAPS)
10:37PM 36.9740 179.8322 259° West 489 563 40,000  Level FlightAware Transoceanic
10:38PM 36.9478 179.6645 259° West 489 563 40,000  Level FlightAware Transoceanic
10:39PM 36.9214 179.4969 259° West 488 562 40,000  Level FlightAware Transoceanic
10:40PM 36.8948 179.3294 259° West 488 562 40,000  Level FlightAware Transoceanic
10:41PM 36.8679 179.1620 259° West 488 562 40,000  Level FlightAware Transoceanic
10:42PM 36.8380 178.9781 258° West 496 571 40,000  Level FlightAware Transoceanic
10:43PM 36.8102 178.8082 258° West 496 571 40,000  Level FlightAware Transoceanic
10:44PM 36.7821 178.6384 258° West 496 571 40,000  Level FlightAware Transoceanic
10:45PM 36.7537 178.4687 258° West 496 571 40,000  Level FlightAware Transoceanic
10:46PM 36.7252 178.2992 258° West 496 571 40,000  Level FlightAware Transoceanic
10:46PM 36.7167 178.2500 258° West 500 575 40,000  Level Oakland Oceanic (ODAPS)
10:47PM 36.6964 178.1298 258° West 496 571 40,000  Level FlightAware Transoceanic
10:48PM 36.6673 177.9606 258° West 496 571 40,000  Level FlightAware Transoceanic
10:49PM 36.6380 177.7914 258° West 496 571 40,000  Level FlightAware Transoceanic
10:50PM 36.6085 177.6224 258° West 496 571 40,000  Level FlightAware Transoceanic
10:51PM 36.5787 177.4535 258° West 496 571 40,000  Level FlightAware Transoceanic
10:52PM 36.5487 177.2848 257° West 496 571 40,000  Level FlightAware Transoceanic
10:53PM 36.5107 177.0741 257° West 500 575 40,000  Level FlightAware Transoceanic
10:54PM 36.4804 176.9066 257° West 500 575 40,000  Level FlightAware Transoceanic
10:55PM 36.4498 176.7392 257° West 500 575 40,000  Level FlightAware Transoceanic
10:56PM 36.4190 176.5720 257° West 500 575 40,000  Level FlightAware Transoceanic
10:57PM 36.3879 176.4050 257° West 500 575 40,000  Level FlightAware Transoceanic
10:58PM 36.3566 176.2380 257° West 500 575 40,000  Level FlightAware Transoceanic
10:59PM 36.3251 176.0712 257° West 500 575 40,000  Level FlightAware Transoceanic
11:00PM 36.2934 175.9045 257° West 500 575 40,000  Level FlightAware Transoceanic
11:00PM 36.3000 175.9333 257° West 505 581 40,000  Level Oakland Oceanic (ODAPS)
11:01PM 36.2614 175.7380 257° West 500 575 40,000  Level FlightAware Transoceanic
11:02PM 36.2291 175.5716 256° West 500 575 40,000  Level FlightAware Transoceanic
11:03PM 36.1967 175.4053 256° West 500 575 40,000  Level FlightAware Transoceanic
11:04PM 36.1640 175.2392 256° West 500 575 40,000  Level FlightAware Transoceanic
11:05PM 36.1311 175.0732 256° West 500 575 40,000  Level FlightAware Transoceanic
11:06PM 36.1037 174.9312 256° West 505 581 40,000  Level FlightAware Transoceanic
11:07PM 36.0702 174.7647 256° West 505 581 40,000  Level FlightAware Transoceanic
11:08PM 36.0365 174.5983 256° West 505 581 40,000  Level FlightAware Transoceanic
11:09PM 36.0025 174.4321 256° West 505 581 40,000  Level FlightAware Transoceanic
11:10PM 35.9683 174.2660 256° West 505 581 40,000  Level FlightAware Transoceanic
11:11PM 35.9338 174.1001 256° West 505 581 40,000  Level FlightAware Transoceanic
11:12PM 35.8992 173.9342 255° West 505 581 40,000  Level FlightAware Transoceanic
11:13PM 35.8643 173.7686 255° West 505 581 40,000  Level FlightAware Transoceanic
11:14PM 35.8292 173.6031 255° West 505 581 40,000  Level FlightAware Transoceanic
11:14PM 35.8333 173.6167 255° West 503 579 40,000  Level Oakland Oceanic (ODAPS)
11:15PM 35.7938 173.4377 255° West 505 581 40,000  Level FlightAware Transoceanic
11:16PM 35.7582 173.2725 255° West 505 581 40,000  Level FlightAware Transoceanic
11:17PM 35.7224 173.1074 255° West 505 581 40,000  Level FlightAware Transoceanic
11:18PM 35.6864 172.9425 255° West 505 581 40,000  Level FlightAware Transoceanic
11:19PM 35.6502 172.7777 255° West 505 581 40,000  Level FlightAware Transoceanic
11:20PM 35.6168 172.6229 255° West 503 579 40,000  Level FlightAware Transoceanic
11:21PM 35.5799 172.4578 255° West 503 579 40,000  Level FlightAware Transoceanic
11:22PM 35.5428 172.2929 254° West 503 579 40,000  Level FlightAware Transoceanic
11:23PM 35.5055 172.1281 254° West 503 579 40,000  Level FlightAware Transoceanic
11:24PM 35.4679 171.9635 254° West 503 579 40,000  Level FlightAware Transoceanic
11:25PM 35.4301 171.7990 254° West 503 579 40,000  Level FlightAware Transoceanic
11:26PM 35.3922 171.6346 254° West 503 579 40,000  Level FlightAware Transoceanic
11:27PM 35.3539 171.4705 254° West 503 579 40,000  Level FlightAware Transoceanic
11:28PM 35.3155 171.3065 254° West 503 579 40,000  Level FlightAware Transoceanic
11:28PM 35.3167 171.3167 254° West 500 575 40,000  Level Oakland Oceanic (ODAPS)
11:29PM 35.2768 171.1426 254° West 503 579 40,000  Level FlightAware Transoceanic
11:30PM 35.2379 170.9789 254° West 503 579 40,000  Level FlightAware Transoceanic
11:31PM 35.1988 170.8154 254° West 503 579 40,000  Level FlightAware Transoceanic
11:32PM 35.1595 170.6520 254° West 503 579 40,000  Level FlightAware Transoceanic
11:33PM 35.1199 170.4887 253° West 503 579 40,000  Level FlightAware Transoceanic
11:34PM 35.0805 170.3282 253° West 500 575 40,000  Level FlightAware Transoceanic
11:35PM 35.0404 170.1640 253° West 500 575 40,000  Level FlightAware Transoceanic
11:36PM 35.0000 170.0000 266° West 500 575 40,000  Level FlightAware Transoceanic
11:36PM 35.0000 170.0000 266° West 509 586 40,000  Level Oakland Oceanic (ODAPS)
11:37PM 34.9901 169.8316 266° West 500 575 40,000  Level FlightAware Transoceanic
11:38PM 34.9799 169.6633 266° West 500 575 40,000  Level FlightAware Transoceanic
11:39PM 34.9696 169.4949 266° West 500 575 40,000  Level FlightAware Transoceanic
11:40PM 34.9589 169.3267 266° West 500 575 40,000  Level FlightAware Transoceanic
11:41PM 34.9481 169.1585 265° West 500 575 40,000  Level FlightAware Transoceanic
11:42PM 34.9359 168.9732 265° West 509 586 40,000  Level FlightAware Transoceanic
11:42PM 34.9333 169.0000 265° West 508 585 40,000  Level Oakland Oceanic (ODAPS)
11:43PM 34.9243 168.8022 265° West 509 586 40,000  Level FlightAware Transoceanic
11:44PM 34.9126 168.6313 265° West 509 586 40,000  Level FlightAware Transoceanic
11:45PM 34.9006 168.4604 265° West 509 586 40,000  Level FlightAware Transoceanic
11:46PM 34.8883 168.2896 265° West 509 586 40,000  Level FlightAware Transoceanic
11:47PM 34.8758 168.1188 265° West 509 586 40,000  Level FlightAware Transoceanic
11:48PM 34.8611 167.9719 265° West 508 585 40,000  Level FlightAware Transoceanic
11:49PM 34.8482 167.8007 265° West 508 585 40,000  Level FlightAware Transoceanic
11:50PM 34.8350 167.6296 265° West 508 585 40,000  Level FlightAware Transoceanic
11:51PM 34.8217 167.4585 265° West 508 585 40,000  Level FlightAware Transoceanic
11:52PM 34.8081 167.2875 264° West 508 585 40,000  Level FlightAware Transoceanic
11:53PM 34.7942 167.1166 264° West 508 585 40,000  Level FlightAware Transoceanic
11:54PM 34.7802 166.9457 264° West 508 585 40,000  Level FlightAware Transoceanic
11:55PM 34.7658 166.7748 264° West 508 585 40,000  Level FlightAware Transoceanic
11:55PM 34.7667 166.6667 264° West 505 581 40,000  Level Oakland Oceanic (ODAPS)
11:56PM 34.7513 166.6041 264° West 508 585 40,000  Level FlightAware Transoceanic
11:57PM 34.7365 166.4333 264° West 508 585 40,000  Level FlightAware Transoceanic
11:58PM 34.7214 166.2627 264° West 508 585 40,000  Level FlightAware Transoceanic
11:59PM 34.7062 166.0921 264° West 508 585 40,000  Level FlightAware Transoceanic
12:00AM 34.6907 165.9216 264° West 508 585 40,000  Level FlightAware Transoceanic
12:01AM 34.6749 165.7511 264° West 508 585 40,000  Level FlightAware Transoceanic
12:02AM 34.6724 165.6335 263° West 505 581 40,000  Level FlightAware Transoceanic
12:03AM 34.6558 165.4615 263° West 505 581 40,000  Level FlightAware Transoceanic
12:04AM 34.6390 165.2896 263° West 505 581 40,000  Level FlightAware Transoceanic
12:05AM 34.6220 165.1178 263° West 505 581 40,000  Level FlightAware Transoceanic
12:06AM 34.6047 164.9460 263° West 505 581 40,000  Level FlightAware Transoceanic
12:07AM 34.5872 164.7743 263° West 505 581 40,000  Level FlightAware Transoceanic
12:08AM 34.5694 164.6027 263° West 505 581 40,000  Level FlightAware Transoceanic
12:09AM 34.5514 164.4312 263° West 505 581 40,000  Level FlightAware Transoceanic
12:10AM 34.5332 164.2597 263° West 505 581 40,000  Level FlightAware Transoceanic
12:11AM 34.5147 164.0883 262° West 505 581 40,000  Level FlightAware Transoceanic
12:12AM 34.4960 163.9170 262° West 505 581 40,000  Level FlightAware Transoceanic
12:13AM 34.4770 163.7458 262° West 505 581 40,000  Level FlightAware Transoceanic
12:14AM 34.4578 163.5746 262° West 505 581 40,000  Level FlightAware Transoceanic
12:15AM 34.4384 163.4036 262° West 505 581 40,000  Level FlightAware Transoceanic
12:16AM 34.4187 163.2326 262° West 505 581 40,000  Level FlightAware Transoceanic
12:17AM 34.3988 163.0616 262° West 505 581 40,000  Level FlightAware Transoceanic
12:18AM 34.3786 162.8908 262° West 505 581 40,000  Level FlightAware Transoceanic
12:19AM 34.3582 162.7201 262° West 505 581 40,000  Level FlightAware Transoceanic
12:20AM 34.3376 162.5494 262° West 505 581 40,000  Level FlightAware Transoceanic
12:21AM 34.3167 162.3788 262° West 505 581 40,000  Level FlightAware Transoceanic
12:22AM 34.2957 162.2083 261° West 505 581 40,000  Level FlightAware Transoceanic
12:23AM 34.2743 162.0379 261° West 505 581 40,000  Level FlightAware Transoceanic
12:24AM 34.2528 161.8676 261° West 505 581 40,000  Level FlightAware Transoceanic
12:25AM 34.2309 161.6974 261° West 505 581 40,000  Level FlightAware Transoceanic
12:26AM 34.2089 161.5272 261° West 505 581 40,000  Level FlightAware Transoceanic
12:27AM 34.1866 161.3571 261° West 505 581 40,000  Level FlightAware Transoceanic
12:28AM 34.1641 161.1872 261° West 505 581 40,000  Level FlightAware Transoceanic
12:29AM 34.1414 161.0173 261° West 505 581 40,000  Level FlightAware Transoceanic
12:30AM 34.1184 160.8475 261° West 505 581 40,000  Level FlightAware Transoceanic
12:31AM 34.0952 160.6778 261° West 505 581 40,000  Level FlightAware Transoceanic
12:32AM 34.0717 160.5082 260° West 505 581 40,000  Level FlightAware Transoceanic
12:33AM 34.0480 160.3387 260° West 505 581 40,000  Level FlightAware Transoceanic
12:34AM 34.0241 160.1693 260° West 505 581 40,000  Level FlightAware Transoceanic
12:35AM 34.0000 160.0000 273° West 505 581 40,000  Level FlightAware Transoceanic
12:36AM 34.0065 159.8363 273° West 505 581 40,000  Level FlightAware Transoceanic
12:37AM 34.0128 159.6726 273° West 505 581 40,000  Level FlightAware Transoceanic
12:38AM 34.0189 159.5089 273° West 505 581 40,000  Level FlightAware Transoceanic
12:39AM 34.0248 159.3451 272° West 505 581 40,000  Level FlightAware Transoceanic
12:40AM 34.0305 159.1813 272° West 505 581 40,000  Level FlightAware Transoceanic
12:41AM 34.0359 159.0175 272° West 505 581 40,000  Level FlightAware Transoceanic
12:42AM 34.0411 158.8537 272° West 505 581 40,000  Level FlightAware Transoceanic
12:43AM 34.0462 158.6899 272° West 505 581 40,000  Level FlightAware Transoceanic
12:44AM 34.0510 158.5260 272° West 505 581 40,000  Level FlightAware Transoceanic
12:45AM 34.0555 158.3621 272° West 505 581 40,000  Level FlightAware Transoceanic
12:46AM 34.0599 158.1982 272° West 505 581 40,000  Level FlightAware Transoceanic
12:47AM 34.0640 158.0343 272° West 505 581 40,000  Level FlightAware Transoceanic
12:48AM 34.0680 157.8704 272° West 505 581 40,000  Level FlightAware Transoceanic
12:49AM 34.0717 157.7064 272° West 505 581 40,000  Level FlightAware Transoceanic
12:50AM 34.0751 157.5425 271° West 505 581 40,000  Level FlightAware Transoceanic
12:51AM 34.0784 157.3785 271° West 505 581 40,000  Level FlightAware Transoceanic
12:52AM 34.0815 157.2145 271° West 505 581 40,000  Level FlightAware Transoceanic
12:53AM 34.0843 157.0505 271° West 505 581 40,000  Level FlightAware Transoceanic
12:54AM 34.0869 156.8865 271° West 505 581 40,000  Level FlightAware Transoceanic
12:55AM 34.0893 156.7225 271° West 505 581 40,000  Level FlightAware Transoceanic
12:56AM 34.0915 156.5585 271° West 505 581 40,000  Level FlightAware Transoceanic
12:57AM 34.0935 156.3945 271° West 505 581 40,000  Level FlightAware Transoceanic
12:58AM 34.0952 156.2304 271° West 505 581 40,000  Level FlightAware Transoceanic
12:59AM 34.0967 156.0664 271° West 505 581 40,000  Level FlightAware Transoceanic
01:00AM 34.0980 155.9023 271° West 505 581 40,000  Level FlightAware Transoceanic
01:01AM 34.0991 155.7383 270° West 505 581 40,000  Level FlightAware Transoceanic
01:02AM 34.1000 155.5742 270° West 505 581 40,000  Level FlightAware Transoceanic
01:03AM 34.1007 155.4102 270° West 505 581 40,000  Level FlightAware Transoceanic
01:04AM 34.1011 155.2461 270° West 505 581 40,000  Level FlightAware Transoceanic
01:05AM 34.1013 155.0820 270° West 505 581 40,000  Level FlightAware Transoceanic
01:06AM 34.1013 154.9180 270° West 505 581 40,000  Level FlightAware Transoceanic
01:07AM 34.1011 154.7539 270° West 505 581 40,000  Level FlightAware Transoceanic
01:08AM 34.1007 154.5898 270° West 505 581 40,000  Level FlightAware Transoceanic
01:09AM 34.1000 154.4258 270° West 505 581 40,000  Level FlightAware Transoceanic
01:10AM 34.0991 154.2617 270° West 505 581 40,000  Level FlightAware Transoceanic
01:11AM 34.0980 154.0977 269° West 505 581 40,000  Level FlightAware Transoceanic
01:12AM 34.0967 153.9336 269° West 505 581 40,000  Level FlightAware Transoceanic
01:13AM 34.0952 153.7696 269° West 505 581 40,000  Level FlightAware Transoceanic
01:14AM 34.0935 153.6055 269° West 505 581 40,000  Level FlightAware Transoceanic
01:15AM 34.0915 153.4415 269° West 505 581 40,000  Level FlightAware Transoceanic
01:16AM 34.0893 153.2775 269° West 505 581 40,000  Level FlightAware Transoceanic
01:17AM 34.0869 153.1135 269° West 505 581 40,000  Level FlightAware Transoceanic
01:18AM 34.0843 152.9495 269° West 505 581 40,000  Level FlightAware Transoceanic
01:19AM 34.0815 152.7855 269° West 505 581 40,000  Level FlightAware Transoceanic
01:20AM 34.0784 152.6215 269° West 505 581 40,000  Level FlightAware Transoceanic
01:21AM 34.0751 152.4575 269° West 505 581 40,000  Level FlightAware Transoceanic
01:22AM 34.0717 152.2936 268° West 505 581 40,000  Level FlightAware Transoceanic
01:23AM 34.0680 152.1296 268° West 505 581 40,000  Level FlightAware Transoceanic
01:24AM 34.0640 151.9657 268° West 505 581 40,000  Level FlightAware Transoceanic
01:25AM 34.0599 151.8018 268° West 505 581 40,000  Level FlightAware Transoceanic
01:26AM 34.0555 151.6379 268° West 505 581 40,000  Level FlightAware Transoceanic
01:27AM 34.0510 151.4740 268° West 505 581 40,000  Level FlightAware Transoceanic
01:28AM 34.0462 151.3101 268° West 505 581 40,000  Level FlightAware Transoceanic
01:29AM 34.0411 151.1463 268° West 505 581 40,000  Level FlightAware Transoceanic
01:30AM 34.0359 150.9825 268° West 505 581 40,000  Level FlightAware Transoceanic
01:31AM 34.0305 150.8187 268° West 505 581 40,000  Level FlightAware Transoceanic
01:32AM 34.0248 150.6549 268° West 505 581 40,000  Level FlightAware Transoceanic
01:33AM 34.0189 150.4911 267° West 505 581 40,000  Level FlightAware Transoceanic
01:34AM 34.0128 150.3274 267° West 505 581 40,000  Level FlightAware Transoceanic
01:35AM 34.0065 150.1637 267° West 505 581 40,000  Level FlightAware Transoceanic
01:36AM 34.0004 150.0094 267° West  Level FlightAware Approximate
01:37AM 33.9940 149.8551 267° West  Level FlightAware Approximate
01:38AM 34.0117 149.8650 276° West  Level FlightAware Approximate
01:39AM 34.0248 149.7113 276° West  Level FlightAware Approximate
01:40AM 34.0377 149.5576 276° West  Level FlightAware Approximate
01:41AM 34.0505 149.4037 276° West  Level FlightAware Approximate
01:42AM 34.0630 149.2499 276° West  Level FlightAware Approximate
01:43AM 34.0754 149.0960 276° West  Level FlightAware Approximate
01:44AM 34.0875 148.9421 275° West  Level FlightAware Approximate
01:45AM 34.0995 148.7881 275° West  Level FlightAware Approximate
01:46AM 34.1112 148.6347 275° West  Level FlightAware Approximate
01:47AM 34.1227 148.4813 275° West  Level FlightAware Approximate
01:48AM 34.1341 148.3278 275° West  Level FlightAware Approximate
01:49AM 34.1452 148.1743 275° West  Level FlightAware Approximate
01:50AM 34.1562 148.0208 275° West  Level FlightAware Approximate
01:51AM 34.1670 147.8672 275° West  Level FlightAware Approximate
01:52AM 34.1776 147.7135 275° West  Level FlightAware Approximate
01:53AM 34.1879 147.5599 275° West  Level FlightAware Approximate
01:54AM 34.1981 147.4062 275° West  Level FlightAware Approximate
01:55AM 34.2081 147.2524 275° West  Level FlightAware Approximate
01:56AM 34.2180 147.0986 274° West  Level FlightAware Approximate
01:57AM 34.2276 146.9448 274° West  Level FlightAware Approximate
01:58AM 34.2370 146.7910 274° West  Level FlightAware Approximate
01:59AM 34.2463 146.6371 274° West  Level FlightAware Approximate
02:00AM 34.2553 146.4832 274° West  Level FlightAware Approximate
02:01AM 34.2641 146.3292 274° West  Level FlightAware Approximate
02:02AM 34.2728 146.1752 274° West  Level FlightAware Approximate
02:03AM 34.2813 146.0212 274° West  Level FlightAware Approximate
02:04AM 34.2978 145.8682 279° West  Level FlightAware Approximate
02:05AM 34.3167 145.7155 279° West  Level FlightAware Approximate
02:06AM 34.3355 145.5628 279° West  Level FlightAware Approximate
02:07AM 34.3541 145.4099 278° West  Level FlightAware Approximate
02:08AM 34.3725 145.2570 278° West  Level FlightAware Approximate
02:09AM 34.3907 145.1041 278° West  Level FlightAware Approximate
02:10AM 34.4088 144.9510 278° West  Level FlightAware Approximate
02:11AM 34.4264 144.7979 278° West  Level FlightAware Approximate
02:12AM 34.4437 144.6447 278° West  Level FlightAware Approximate
02:13AM 34.4608 144.4914 278° West  Level FlightAware Approximate
02:14AM 34.4777 144.3381 278° West  Level FlightAware Approximate
02:15AM 34.4944 144.1846 278° West  Level FlightAware Approximate
02:15AM 34.8250 143.9350 277° West 455 524 40,000  Level FlightAware
02:16AM 34.5110 144.0312 277° West  Level FlightAware Approximate
02:16AM 34.8490 143.8760 296° West 454 522 40,000  Level FlightAware
02:16AM 34.8930 143.7640 296° West 453 521 40,000  Level FlightAware
02:17AM 34.9230 143.6880 296° West 451 519 40,000  Level FlightAware
02:18AM 34.9570 143.6030 296° West 451 519 40,000  Level FlightAware
02:18AM 34.9860 143.5280 295° West 450 518 40,000  Level FlightAware
02:19AM 35.0150 143.4550 296° West 449 517 40,000 -240 Level FlightAware
02:19AM 35.0570 143.3470 295° West 448 516 39,700 -1,380 Descending FlightAware
02:20AM 35.0850 143.2750 295° West 440 506 38,300 -2,700 Descending FlightAware
02:21AM 35.1190 143.1900 296° West 441 507 36,600 -2,400 Descending FlightAware
02:21AM 35.1490 143.1130 295° West 429 494 35,400 -2,040 Descending FlightAware
02:22AM 35.1760 143.0410 295° West 423 487 34,200 -2,220 Descending FlightAware
02:22AM 35.2110 142.9520 296° West 421 484 32,700 -2,040 Descending FlightAware
02:23AM 35.2360 142.8870 295° West 397 457 31,800 -1,860 Descending FlightAware
02:23AM 35.2630 142.8180 296° West 385 443 30,600 -2,040 Descending FlightAware
02:24AM 35.2850 142.7600 295° West 376 433 29,600 -1,440 Descending FlightAware
02:25AM 35.3040 142.7090 295° West 373 429 29,000 -1,680 Descending FlightAware
02:25AM 35.3390 142.6200 296° West 359 413 27,600 -1,920 Descending FlightAware
02:26AM 35.3640 142.5540 295° West 355 409 26,700 -1,500 Descending FlightAware
02:26AM 35.3890 142.4870 295° West 358 412 25,900 -1,320 Descending FlightAware
02:27AM 35.4080 142.4390 296° West 353 406 25,300 -1,200 Descending FlightAware
02:28AM 35.4390 142.3580 295° West 329 379 24,400 -1,440 Descending FlightAware
02:28AM 35.4620 142.2960 295° West 317 365 23,400 -1,740 Descending FlightAware
02:29AM 35.4810 142.2460 295° West 316 364 22,400 -1,560 Descending FlightAware
02:29AM 35.5050 142.1840 295° West 303 349 21,600 -1,020 Descending FlightAware
02:30AM 35.5300 142.1160 294° West 302 348 21,100 -1,320 Descending FlightAware
02:31AM 35.5500 142.0630 295° West 299 344 19,900 -1,680 Descending FlightAware
02:31AM 35.5750 141.9960 295° West 299 344 19,000 -1,380 Descending FlightAware
02:32AM 35.5890 141.9540 292° West 295 339 18,400 -1,260 Descending FlightAware
02:32AM 35.5920 141.9260 278° West 288 331 18,100 -1,260 Descending FlightAware
02:33AM 35.5890 141.8790 266° West 283 326 17,400 -1,380 Descending FlightAware
02:33AM 35.5860 141.8190 266° West 280 322 16,600 -1,200 Descending FlightAware
02:34AM 35.5830 141.7670 266° West 284 327 16,000 -540 Descending FlightAware
02:34AM 35.5800 141.7080 266° West 282 325 16,000 -660 Level FlightAware
02:35AM 35.5770 141.6530 266° West 281 323 15,300 -1,140 Descending FlightAware
02:36AM 35.5740 141.5970 266° West 275 316 14,700 -900 Descending FlightAware
02:36AM 35.5700 141.5310 266° West 269 310 14,100 -840 Descending FlightAware
02:37AM 35.5730 141.4850 275° West 265 305 13,700 -840 Descending FlightAware
02:37AM 35.5770 141.4700 288° West 264 304 13,600 -780 Descending FlightAware
02:38AM 35.6030 141.4130 299° West 267 307 13,000 -900 Descending FlightAware
02:38AM 35.6240 141.3660 299° West 267 307 12,500 -840 Descending FlightAware
02:39AM 35.6440 141.3230 300° West 268 308 12,100 -780 Descending FlightAware
02:39AM 35.6670 141.2710 299° West 270 311 11,600 -900 Descending FlightAware
02:40AM 35.6870 141.2260 299° West 267 307 11,100 -900 Descending FlightAware
02:41AM 35.7090 141.1790 300° West 256 295 10,600 -780 Descending FlightAware
02:41AM 35.7330 141.1240 298° West 255 293 10,100 -780 Descending FlightAware
02:42AM 35.7450 141.0990 301° West 253 291 9,800 -720 Descending FlightAware
02:42AM 35.7560 141.0730 298° West 252 290 9,600 -600 Descending FlightAware
02:42AM 35.7700 141.0430 300° West 250 288 9,400 -540 Descending FlightAware
02:43AM 35.7780 141.0240 297° West 251 289 9,300 -360 Descending FlightAware
02:43AM 35.7890 140.9990 298° West 250 288 9,200 -300 Descending FlightAware
02:43AM 35.8010 140.9730 300° West 250 288 9,100 -540 Descending FlightAware
02:44AM 35.8080 140.9540 294° West 249 287 8,900 -480 Descending FlightAware
02:44AM 35.8090 140.9390 275° West 253 291 8,900 -420 Level FlightAware
02:44AM 35.8010 140.9130 249° West 259 298 8,700 -420 Descending FlightAware
02:44AM 35.7920 140.9040 219° Southwest 257 296 8,700  Level FlightAware
02:44AM 35.7800 140.8980 202° Southwest 269 310 8,700  Level FlightAware
02:45AM 35.7670 140.8950 191° South 263 303 8,700  Level FlightAware
02:45AM 35.7350 140.8880 190° South 270 311 8,700  Level FlightAware
02:45AM 35.7120 140.8830 190° South 266 306 8,700  Level FlightAware
02:46AM 35.6780 140.8760 189° South 265 305 8,700  Level FlightAware
02:46AM 35.6530 140.8710 189° South 260 299 8,700 -180 Level FlightAware
02:47AM 35.6260 140.8650 190° South 249 287 8,600 -660 Descending FlightAware
02:47AM 35.5950 140.8580 190° South 245 282 8,200 -900 Descending FlightAware
02:47AM 35.5860 140.8570 185° South 244 281 8,100 -840 Descending FlightAware
02:47AM 35.5630 140.8520 190° South 245 282 7,800 -840 Descending FlightAware
02:48AM 35.5430 140.8480 189° South 232 267 7,600 -960 Descending FlightAware
02:48AM 35.5200 140.8440 188° South 230 265 7,200 -1,080 Descending FlightAware
02:48AM 35.5010 140.8400 190° South 229 264 6,900 -1,080 Descending FlightAware
02:49AM 35.4810 140.8360 189° South 228 262 6,600 -1,140 Descending FlightAware
02:49AM 35.4590 140.8280 196° South 238 274 6,200 -1,320 Descending FlightAware
02:49AM 35.4370 140.8180 200° South 241 277 5,700 -1,320 Descending FlightAware
02:50AM 35.4170 140.8060 206° Southwest 231 266 5,300 -1,020 Descending FlightAware
02:50AM 35.4100 140.7950 232° Southwest 230 265 5,200 -780 Descending FlightAware
02:50AM 35.4020 140.7700 249° West 224 258 4,900 -1,200 Descending FlightAware
02:50AM 35.3980 140.7520 255° West 228 262 4,500 -1,500 Descending FlightAware
02:51AM 35.3970 140.7450 260° West 229 264 4,400 -1,200 Descending FlightAware
02:51AM 35.3990 140.7120 274° West 229 264 3,900 -1,020 Descending FlightAware
02:51AM 35.4040 140.6930 288° West 221 254 3,700 -360 Descending FlightAware
02:52AM 35.4110 140.6810 306° West 221 254 3,700  Level FlightAware
02:52AM 35.4310 140.6500 308° West 215 247 3,700  Level FlightAware
02:52AM 35.4400 140.6360 308° West 215 247 3,700  Level FlightAware
02:53AM 35.4540 140.6170 312° West 220 253 3,700  Level FlightAware
02:53AM 35.4640 140.6020 309° West 214 246 3,700  Level FlightAware
02:53AM 35.4740 140.5880 311° West 218 251 3,700  Level FlightAware
02:53AM 35.4830 140.5780 318° Northwest 216 249 3,700  Level FlightAware
02:53AM 35.4900 140.5730 330° Northwest 208 239 3,700  Level FlightAware
02:54AM 35.5110 140.5580 330° Northwest 217 250 3,700  Level FlightAware
02:54AM 35.5340 140.5410 329° Northwest 209 241 3,700  Level FlightAware
02:54AM 35.5460 140.5330 332° Northwest 205 236 3,700  Level FlightAware
02:55AM 35.5620 140.5220 331° Northwest 205 236 3,700  Level FlightAware
02:55AM 35.5760 140.5120 330° Northwest 207 238 3,700 -720 Level FlightAware
02:55AM 35.5920 140.5000 329° Northwest 198 228 3,300 -1,200 Descending FlightAware
02:56AM 35.6070 140.4890 329° Northwest 192 221 2,900 -1,080 Descending FlightAware
02:56AM 35.6230 140.4780 331° Northwest 182 209 2,600 -960 Descending FlightAware
02:56AM 35.6310 140.4720 329° Northwest 176 203 2,400 -1,020 Descending FlightAware
02:57AM 35.6480 140.4590 328° Northwest 164 189 2,000 -1,020 Descending FlightAware
02:57AM 35.6600 140.4510 332° Northwest 164 189 1,700 -960 Descending FlightAware
02:57AM 35.6730 140.4420 331° Northwest 165 190 1,400 -840 Descending FlightAware
02:58AM 35.6840 140.4340 329° Northwest 158 182 1,200 -840 Descending FlightAware
02:58AM 35.6950 140.4260 329° Northwest 146 168 900 -780 Descending FlightAware
02:58AM 35.7020 140.4200 325° Northwest 145 167 800 -720 Descending FlightAware
02:58AM 35.7160 140.4110 332° Northwest 144 166 500 -840 Descending FlightAware
02:59AM 35.7280 140.4020 329° Northwest 145 167 200 -840 Descending FlightAware
02:59AM 35.7380 140.3940 327° Northwest 147 169 -780 Descending FlightAware
03:00AM 35.7510 140.3850 331° Northwest 147 169  Level FlightAware